AFR455 LFMN-LEPA
Flight info
| Callsign | AFR455 |
|---|---|
| Flight time | N/A |
| Altitude | 38000 |
| Route | EPOLO DCT SOFFY/N0489F390 DCT VATIR N852 VERSO L129 LUNIK |
| Aircraft | B789/H-SDE1E2E3FGHIJ2J3J4J5M1RWXY/LB1D1 |
Departure
| Time | N/A |
|---|---|
| Airport | Nice-Côte d'Azur Airport (LFMN) |
Arrival
| Time | 2026-05-05 20:26 |
|---|---|
| Airport | Palma de Mallorca Airport (LEPA) |
| Time | Latitude | Longitude | Altitude | Speed | Heading |
|---|---|---|---|---|---|
| 2026-05-05 19:37 | 43.25847 | 7.03308 | 22225 ft | 393 kts | 216° |
| 2026-05-05 19:38 | 43.23601 | 7.01283 | 22932 ft | 399 kts | 216° |
| 2026-05-05 19:38 | 43.21245 | 6.99157 | 23281 ft | 414 kts | 216° |
| 2026-05-05 19:38 | 43.18904 | 6.96748 | 23541 ft | 430 kts | 223° |
| 2026-05-05 19:38 | 43.16654 | 6.93920 | 23916 ft | 445 kts | 226° |
| 2026-05-05 19:39 | 43.14418 | 6.90912 | 24472 ft | 455 kts | 227° |
| 2026-05-05 19:39 | 43.12185 | 6.87791 | 25128 ft | 463 kts | 228° |
| 2026-05-05 19:39 | 43.09935 | 6.84582 | 25834 ft | 470 kts | 229° |
| 2026-05-05 19:39 | 43.07665 | 6.81316 | 26538 ft | 476 kts | 229° |
| 2026-05-05 19:40 | 43.05369 | 6.78002 | 27261 ft | 482 kts | 229° |
| 2026-05-05 19:40 | 43.03058 | 6.74664 | 28004 ft | 486 kts | 229° |
| 2026-05-05 19:40 | 43.00741 | 6.71322 | 28736 ft | 491 kts | 229° |
| 2026-05-05 19:40 | 42.98378 | 6.67917 | 29439 ft | 496 kts | 229° |
| 2026-05-05 19:41 | 42.95988 | 6.64478 | 30073 ft | 501 kts | 229° |
| 2026-05-05 19:41 | 42.93588 | 6.61004 | 30637 ft | 506 kts | 230° |
| 2026-05-05 19:41 | 42.91483 | 6.57142 | 31208 ft | 507 kts | 240° |
| 2026-05-05 19:41 | 42.89981 | 6.52802 | 31912 ft | 505 kts | 251° |
| 2026-05-05 19:42 | 42.89129 | 6.48159 | 32628 ft | 503 kts | 262° |
| 2026-05-05 19:42 | 42.88958 | 6.43408 | 33329 ft | 501 kts | 272° |
| 2026-05-05 19:42 | 42.89415 | 6.38730 | 34042 ft | 500 kts | 280° |
| 2026-05-05 19:42 | 42.90116 | 6.34145 | 34925 ft | 483 kts | 282° |
| 2026-05-05 19:43 | 42.90785 | 6.30062 | 38087 ft | 425 kts | 281° |
| 2026-05-05 19:43 | 42.91350 | 6.26147 | 38795 ft | 420 kts | 279° |
| 2026-05-05 19:43 | 42.91825 | 6.22195 | 38770 ft | 424 kts | 278° |
| 2026-05-05 19:44 | 42.92673 | 6.14132 | 38940 ft | 436 kts | 277° |
| 2026-05-05 19:44 | 42.93093 | 6.09992 | 39044 ft | 444 kts | 277° |
| 2026-05-05 19:44 | 42.93518 | 6.05767 | 39150 ft | 452 kts | 277° |
| 2026-05-05 19:44 | 42.93950 | 6.01462 | 39258 ft | 461 kts | 277° |
| 2026-05-05 19:45 | 42.94388 | 5.97085 | 39371 ft | 469 kts | 277° |
| 2026-05-05 19:45 | 42.94833 | 5.92631 | 39510 ft | 477 kts | 277° |
| 2026-05-05 19:45 | 42.95277 | 5.88167 | 39688 ft | 483 kts | 277° |
| 2026-05-05 19:45 | 42.95730 | 5.83600 | 39942 ft | 487 kts | 277° |
| 2026-05-05 19:46 | 42.96182 | 5.79027 | 40219 ft | 486 kts | 277° |
| 2026-05-05 19:46 | 42.96634 | 5.74436 | 40469 ft | 488 kts | 277° |
| 2026-05-05 19:46 | 42.97086 | 5.69830 | 40785 ft | 490 kts | 277° |
| 2026-05-05 19:46 | 42.97537 | 5.65208 | 40946 ft | 492 kts | 277° |
| 2026-05-05 19:47 | 42.97987 | 5.60574 | 40981 ft | 489 kts | 277° |
| 2026-05-05 19:47 | 42.98867 | 5.51468 | 40995 ft | 486 kts | 277° |
| 2026-05-05 19:48 | 42.99748 | 5.42261 | 40999 ft | 485 kts | 277° |
| 2026-05-05 19:48 | 43.00612 | 5.33158 | 40992 ft | 485 kts | 277° |
| 2026-05-05 19:49 | 43.01039 | 5.23998 | 40968 ft | 484 kts | 264° |
| 2026-05-05 19:49 | 42.98976 | 5.15265 | 40995 ft | 488 kts | 241° |
| 2026-05-05 19:49 | 42.96994 | 5.11490 | 41002 ft | 491 kts | 230° |
| 2026-05-05 19:50 | 42.94555 | 5.08197 | 41030 ft | 493 kts | 224° |
| 2026-05-05 19:50 | 42.89382 | 5.02033 | 41001 ft | 493 kts | 223° |
| 2026-05-05 19:51 | 42.84296 | 4.95832 | 40988 ft | 492 kts | 224° |
| 2026-05-05 19:51 | 42.79262 | 4.89500 | 40999 ft | 492 kts | 225° |
| 2026-05-05 19:52 | 42.74248 | 4.83134 | 40998 ft | 492 kts | 225° |
| 2026-05-05 19:52 | 42.69237 | 4.76771 | 40990 ft | 492 kts | 225° |
| 2026-05-05 19:53 | 42.64223 | 4.70419 | 41002 ft | 492 kts | 225° |
| 2026-05-05 19:53 | 42.59223 | 4.64102 | 40994 ft | 492 kts | 225° |
| 2026-05-05 19:54 | 42.54197 | 4.57767 | 40992 ft | 492 kts | 225° |
| 2026-05-05 19:54 | 42.49173 | 4.51448 | 41003 ft | 492 kts | 224° |
| 2026-05-05 19:55 | 42.44141 | 4.45134 | 40991 ft | 492 kts | 224° |
| 2026-05-05 19:55 | 42.39138 | 4.38871 | 40995 ft | 492 kts | 224° |
| 2026-05-05 19:56 | 42.34089 | 4.32564 | 41002 ft | 493 kts | 224° |
| 2026-05-05 19:56 | 42.29058 | 4.26295 | 40989 ft | 492 kts | 224° |
| 2026-05-05 19:57 | 42.24037 | 4.20052 | 40998 ft | 492 kts | 224° |
| 2026-05-05 19:57 | 42.18852 | 4.13966 | 40993 ft | 494 kts | 218° |
| 2026-05-05 19:58 | 42.13084 | 4.08852 | 40995 ft | 496 kts | 213° |
| 2026-05-05 19:58 | 42.07100 | 4.04187 | 40990 ft | 497 kts | 211° |
| 2026-05-05 19:59 | 42.01081 | 3.99738 | 41002 ft | 497 kts | 211° |
| 2026-05-05 19:59 | 41.94871 | 3.95565 | 40971 ft | 501 kts | 202° |
| 2026-05-05 20:00 | 41.88151 | 3.92984 | 41003 ft | 503 kts | 196° |
| 2026-05-05 20:00 | 41.81295 | 3.90975 | 40987 ft | 504 kts | 193° |
| 2026-05-05 20:01 | 41.74465 | 3.89290 | 40997 ft | 505 kts | 192° |
| 2026-05-05 20:01 | 41.67493 | 3.87666 | 41000 ft | 505 kts | 192° |
| 2026-05-05 20:02 | 41.60564 | 3.86065 | 40989 ft | 505 kts | 192° |
| 2026-05-05 20:02 | 41.53671 | 3.84485 | 41004 ft | 495 kts | 192° |
| 2026-05-05 20:03 | 41.47037 | 3.82968 | 40983 ft | 478 kts | 192° |
| 2026-05-05 20:03 | 41.40451 | 3.81456 | 41001 ft | 485 kts | 192° |
| 2026-05-05 20:04 | 41.33722 | 3.79916 | 41006 ft | 495 kts | 192° |
| 2026-05-05 20:04 | 41.26863 | 3.78353 | 40985 ft | 504 kts | 192° |
| 2026-05-05 20:05 | 41.19923 | 3.76777 | 40994 ft | 506 kts | 193° |
| 2026-05-05 20:05 | 41.13173 | 3.74319 | 41010 ft | 502 kts | 201° |
| 2026-05-05 20:06 | 41.06599 | 3.71180 | 40991 ft | 501 kts | 203° |
| 2026-05-05 20:06 | 41.00084 | 3.67852 | 40995 ft | 501 kts | 204° |
| 2026-05-05 20:07 | 40.93583 | 3.64501 | 41001 ft | 501 kts | 204° |
| 2026-05-05 20:07 | 40.87120 | 3.61181 | 40990 ft | 501 kts | 204° |
| 2026-05-05 20:08 | 40.80604 | 3.57845 | 40999 ft | 501 kts | 204° |
| 2026-05-05 20:08 | 40.74084 | 3.54516 | 40997 ft | 501 kts | 204° |
| 2026-05-05 20:09 | 40.67580 | 3.51203 | 40990 ft | 501 kts | 204° |
| 2026-05-05 20:09 | 40.61116 | 3.47916 | 41002 ft | 501 kts | 204° |
| 2026-05-05 20:10 | 40.54590 | 3.44604 | 40993 ft | 501 kts | 204° |
| 2026-05-05 20:10 | 40.48041 | 3.41582 | 40422 ft | 492 kts | 194° |
| 2026-05-05 20:10 | 40.44704 | 3.40935 | 40128 ft | 476 kts | 189° |
| 2026-05-05 20:11 | 40.41469 | 3.40550 | 39933 ft | 457 kts | 187° |
| 2026-05-05 20:11 | 40.38338 | 3.40276 | 39567 ft | 444 kts | 186° |
| 2026-05-05 20:11 | 40.35241 | 3.40139 | 38525 ft | 447 kts | 184° |
| 2026-05-05 20:11 | 40.32116 | 3.40133 | 37241 ft | 454 kts | 182° |
| 2026-05-05 20:12 | 40.28966 | 3.40219 | 35912 ft | 461 kts | 181° |
| 2026-05-05 20:12 | 40.26828 | 3.40309 | 35006 ft | 465 kts | 181° |
| 2026-05-05 20:12 | 40.22485 | 3.40529 | 33053 ft | 473 kts | 180° |
| 2026-05-05 20:12 | 40.19147 | 3.40712 | 31476 ft | 479 kts | 180° |
| 2026-05-05 20:13 | 40.15799 | 3.40899 | 29880 ft | 483 kts | 180° |
| 2026-05-05 20:13 | 40.14636 | 3.40964 | 29309 ft | 485 kts | 180° |
| 2026-05-05 20:13 | 40.14006 | 3.40999 | 29000 ft | 485 kts | 180° |
| 2026-05-05 20:13 | 40.10629 | 3.41188 | 27445 ft | 486 kts | 180° |
| 2026-05-05 20:14 | 40.07249 | 3.41375 | 25988 ft | 483 kts | 180° |
| 2026-05-05 20:14 | 40.03910 | 3.41560 | 24617 ft | 476 kts | 180° |
| 2026-05-05 20:14 | 40.00628 | 3.41746 | 23286 ft | 469 kts | 180° |
| 2026-05-05 20:14 | 39.97396 | 3.41930 | 21981 ft | 461 kts | 180° |
| 2026-05-05 20:15 | 39.94207 | 3.42111 | 20706 ft | 453 kts | 180° |
| 2026-05-05 20:15 | 39.91088 | 3.42287 | 19486 ft | 445 kts | 180° |
| 2026-05-05 20:15 | 39.88063 | 3.42457 | 18315 ft | 436 kts | 180° |
| 2026-05-05 20:15 | 39.85051 | 3.42625 | 17129 ft | 428 kts | 180° |
| 2026-05-05 20:16 | 39.82090 | 3.42790 | 15938 ft | 421 kts | 180° |
| 2026-05-05 20:16 | 39.79198 | 3.42789 | 14734 ft | 411 kts | 188° |
| 2026-05-05 20:16 | 39.76437 | 3.42054 | 13507 ft | 400 kts | 201° |
| 2026-05-05 20:16 | 39.73955 | 3.40570 | 12301 ft | 388 kts | 214° |
| 2026-05-05 20:17 | 39.71883 | 3.38414 | 11061 ft | 377 kts | 230° |
| 2026-05-05 20:17 | 39.70535 | 3.35562 | 9788 ft | 366 kts | 250° |
| 2026-05-05 20:17 | 39.70076 | 3.32369 | 8548 ft | 357 kts | 267° |
| 2026-05-05 20:17 | 39.70094 | 3.29183 | 7437 ft | 348 kts | 272° |
| 2026-05-05 20:18 | 39.70206 | 3.26143 | 6438 ft | 336 kts | 273° |
| 2026-05-05 20:18 | 39.70327 | 3.23100 | 5350 ft | 330 kts | 274° |
| 2026-05-05 20:18 | 39.70442 | 3.20180 | 4406 ft | 324 kts | 274° |
| 2026-05-05 20:18 | 39.70557 | 3.17289 | 3690 ft | 314 kts | 274° |
| 2026-05-05 20:19 | 39.70662 | 3.14540 | 3398 ft | 295 kts | 273° |
| 2026-05-05 20:19 | 39.70756 | 3.11958 | 3145 ft | 276 kts | 273° |
| 2026-05-05 20:19 | 39.70832 | 3.09523 | 3055 ft | 264 kts | 271° |
| 2026-05-05 20:19 | 39.70481 | 3.07242 | 2951 ft | 255 kts | 245° |
| 2026-05-05 20:20 | 39.69535 | 3.05381 | 3023 ft | 240 kts | 234° |
| 2026-05-05 20:20 | 39.68601 | 3.03618 | 2998 ft | 233 kts | 236° |
| 2026-05-05 20:20 | 39.67721 | 3.01920 | 2982 ft | 225 kts | 236° |
| 2026-05-05 20:20 | 39.66890 | 3.00253 | 2990 ft | 214 kts | 237° |
| 2026-05-05 20:21 | 39.66122 | 2.98659 | 3013 ft | 200 kts | 238° |
| 2026-05-05 20:21 | 39.65431 | 2.97168 | 3042 ft | 192 kts | 239° |
| 2026-05-05 20:21 | 39.64758 | 2.95677 | 3023 ft | 190 kts | 240° |
| 2026-05-05 20:21 | 39.64086 | 2.94210 | 3003 ft | 189 kts | 239° |
| 2026-05-05 20:22 | 39.63398 | 2.92772 | 2909 ft | 184 kts | 238° |
| 2026-05-05 20:22 | 39.62734 | 2.91417 | 2693 ft | 171 kts | 237° |
| 2026-05-05 20:22 | 39.62120 | 2.90146 | 2477 ft | 162 kts | 238° |
| 2026-05-05 20:22 | 39.61561 | 2.88944 | 2280 ft | 151 kts | 239° |
| 2026-05-05 20:23 | 39.61030 | 2.87779 | 2092 ft | 150 kts | 239° |
| 2026-05-05 20:23 | 39.60493 | 2.86620 | 1890 ft | 149 kts | 239° |
| 2026-05-05 20:23 | 39.59952 | 2.85488 | 1690 ft | 148 kts | 238° |
| 2026-05-05 20:23 | 39.59407 | 2.84364 | 1494 ft | 147 kts | 238° |
| 2026-05-05 20:24 | 39.58871 | 2.83241 | 1300 ft | 146 kts | 238° |
| 2026-05-05 20:24 | 39.58346 | 2.82114 | 1106 ft | 146 kts | 239° |
| 2026-05-05 20:24 | 39.57831 | 2.81005 | 915 ft | 145 kts | 239° |
| 2026-05-05 20:24 | 39.57304 | 2.79889 | 722 ft | 145 kts | 238° |
| 2026-05-05 20:25 | 39.56774 | 2.78776 | 530 ft | 144 kts | 238° |
| 2026-05-05 20:25 | 39.56250 | 2.77673 | 338 ft | 144 kts | 238° |
| 2026-05-05 20:25 | 39.55726 | 2.76560 | 134 ft | 144 kts | 239° |
| 2026-05-05 20:25 | 39.55225 | 2.75498 | 38 ft | 125 kts | 238° |
| 2026-05-05 20:26 | 39.54948 | 2.74909 | 37 ft | 47 kts | 238° |
| 2026-05-05 20:26 | 39.54853 | 2.74665 | 37 ft | 20 kts | 267° |
| 2026-05-05 20:26 | 39.54863 | 2.74452 | 37 ft | 22 kts | 274° |
| 2026-05-05 20:26 | 39.54883 | 2.74272 | 37 ft | 16 kts | 307° |
| 2026-05-05 20:27 | 39.54988 | 2.74183 | 37 ft | 18 kts | 328° |
| 2026-05-05 20:27 | 39.55008 | 2.74105 | 37 ft | 10 kts | 244° |
| 2026-05-05 20:27 | 39.55021 | 2.74030 | 37 ft | 9 kts | 280° |
| 2026-05-05 20:27 | 39.54992 | 2.73955 | 37 ft | 2 kts | 238° |
| 2026-05-05 20:28 | 39.54990 | 2.73951 | 37 ft | 0 kts | 238° |